Time;durP1;ratioP1;P1;durP2;ratioP2;P2;SDS_P1;SDS_P2;PMS_P1;PMS_P2;Temp;Humidity;BMP_temperature;BMP_pressure;BME280_temperature;BME280_humidity;BME280_pressure;Samples;Min_cycle;Max_cycle;Signal;HPM_P1;HPM_P2
2024/04/03 00:00:44;;;;;;;7.97;2.97;;;10.40;99.90;;;;;;5034278;28;20037;-81
2024/04/03 00:03:11;;;;;;;7.55;3.20;;;10.40;99.90;;;;;;5046032;28;20114;-81
2024/04/03 00:05:37;;;;;;;5.82;3.25;;;10.40;99.90;;;;;;5037305;28;20385;-80
2024/04/03 00:08:03;;;;;;;5.75;3.28;;;10.40;99.90;;;;;;5036855;28;20032;-80
2024/04/03 00:10:29;;;;;;;4.93;3.42;;;10.40;99.90;;;;;;5033751;28;20021;-81
2024/04/03 00:12:55;;;;;;;8.93;3.42;;;10.40;99.90;;;;;;5047327;28;20036;-79
2024/04/03 00:15:20;;;;;;;10.80;4.38;;;10.30;99.90;;;;;;5026202;28;20477;-79
2024/04/03 00:17:46;;;;;;;6.53;3.95;;;10.40;99.90;;;;;;5046955;28;20037;-82
2024/04/03 00:20:11;;;;;;;6.57;4.07;;;10.40;99.90;;;;;;5031635;28;20073;-82
2024/04/03 00:22:37;;;;;;;8.10;4.28;;;10.40;99.90;;;;;;5014105;28;20052;-82
2024/04/03 00:25:03;;;;;;;7.80;4.00;;;10.40;99.90;;;;;;5016966;28;20032;-80
2024/04/03 00:27:29;;;;;;;8.82;4.38;;;10.40;99.90;;;;;;5038408;28;20021;-81
2024/04/03 00:29:55;;;;;;;6.03;3.72;;;10.40;99.90;;;;;;5030881;28;20382;-81
2024/04/03 00:32:20;;;;;;;6.28;4.25;;;10.40;99.90;;;;;;5033090;28;20052;-81
2024/04/03 00:34:46;;;;;;;7.03;4.53;;;10.40;99.90;;;;;;5022639;28;20037;-86
2024/04/03 00:37:12;;;;;;;12.13;5.15;;;10.40;99.90;;;;;;5032051;28;20017;-87
2024/04/03 00:39:38;;;;;;;10.40;4.72;;;10.40;99.90;;;;;;5034518;28;20040;-87
2024/04/03 00:42:03;;;;;;;10.02;4.82;;;10.40;99.90;;;;;;5034493;28;20108;-86
2024/04/03 00:44:29;;;;;;;4.97;4.03;;;10.40;99.90;;;;;;5034336;28;20025;-86
2024/04/03 00:46:55;;;;;;;8.98;4.93;;;10.40;99.90;;;;;;5012372;28;20177;-85
2024/04/03 00:49:21;;;;;;;8.75;4.90;;;10.40;99.90;;;;;;5017914;28;20449;-84
2024/04/03 00:51:48;;;;;;;7.38;5.00;;;10.40;99.90;;;;;;5033912;28;20025;-81
2024/04/03 00:54:15;;;;;;;8.15;4.55;;;10.40;99.90;;;;;;5035579;28;20033;-81
2024/04/03 00:56:41;;;;;;;8.07;4.53;;;10.40;99.90;;;;;;5032591;28;20100;-82
2024/04/03 00:59:06;;;;;;;5.20;3.90;;;10.50;99.90;;;;;;5032773;28;20052;-81
2024/04/03 01:01:32;;;;;;;9.05;4.68;;;10.40;99.90;;;;;;5033303;28;20412;-81
2024/04/03 01:03:57;;;;;;;8.77;4.40;;;10.40;99.90;;;;;;5033147;28;20035;-87
2024/04/03 01:06:23;;;;;;;6.55;4.22;;;10.40;99.90;;;;;;5032290;28;20017;-87
2024/04/03 01:08:49;;;;;;;9.18;4.75;;;10.40;99.90;;;;;;5032304;28;20030;-85
2024/04/03 01:11:16;;;;;;;6.40;4.07;;;10.40;99.90;;;;;;5015853;28;20104;-84
2024/04/03 01:13:42;;;;;;;5.65;4.25;;;10.40;99.90;;;;;;5033247;28;20067;-83
2024/04/03 01:16:08;;;;;;;7.68;3.67;;;10.40;99.90;;;;;;5032520;28;20036;-84
2024/04/03 01:18:36;;;;;;;7.80;4.10;;;10.40;99.90;;;;;;5019326;28;20034;-85
2024/04/03 01:21:02;;;;;;;6.30;3.58;;;10.40;99.90;;;;;;5023111;28;20053;-85
2024/04/03 01:23:28;;;;;;;10.00;4.30;;;10.40;99.90;;;;;;5035616;28;20064;-87
2024/04/03 01:25:54;;;;;;;7.18;3.97;;;10.40;99.90;;;;;;5047923;28;20108;-87
2024/04/03 01:28:21;;;;;;;8.60;3.22;;;10.40;99.90;;;;;;5028909;28;20095;-84
2024/04/03 01:30:47;;;;;;;8.32;4.15;;;10.40;99.90;;;;;;5013382;28;20378;-83
2024/04/03 01:33:13;;;;;;;8.57;3.85;;;10.40;99.90;;;;;;5025227;28;20037;-84
2024/04/03 01:35:39;;;;;;;8.80;4.13;;;10.40;99.90;;;;;;5031534;28;20033;-83
2024/04/03 01:38:04;;;;;;;8.20;3.97;;;10.40;99.90;;;;;;5022091;28;20041;-83
2024/04/03 01:40:30;;;;;;;7.40;3.95;;;10.40;99.90;;;;;;5027863;28;20036;-82
2024/04/03 01:42:56;;;;;;;6.95;3.75;;;10.40;99.90;;;;;;5032583;28;20482;-83
2024/04/03 01:45:22;;;;;;;7.00;2.67;;;10.30;99.90;;;;;;5039458;28;20044;-79
2024/04/03 01:47:47;;;;;;;6.45;3.10;;;10.40;99.90;;;;;;5033531;28;20021;-83
2024/04/03 01:50:20;;;;;;;7.38;3.45;;;10.40;99.90;;;;;;5031328;28;20537;-83
2024/04/03 01:52:46;;;;;;;9.23;3.00;;;10.30;99.90;;;;;;5013498;28;20026;-83
2024/04/03 01:55:12;;;;;;;6.70;3.20;;;10.30;99.90;;;;;;5019046;28;20124;-83
2024/04/03 01:57:38;;;;;;;5.18;2.75;;;10.30;99.90;;;;;;5013980;28;20124;-82
2024/04/03 02:00:05;;;;;;;6.13;2.60;;;10.30;99.90;;;;;;5031896;28;20041;-82
2024/04/03 02:02:31;;;;;;;7.85;2.55;;;10.30;99.90;;;;;;5044760;28;20025;-82
2024/04/03 02:04:56;;;;;;;6.38;2.05;;;10.30;99.90;;;;;;5041274;28;20079;-82
2024/04/03 02:07:22;;;;;;;5.38;2.63;;;10.30;99.90;;;;;;5029556;28;20052;-80
2024/04/03 02:09:47;;;;;;;6.82;2.53;;;10.30;99.90;;;;;;5031642;28;20037;-79
2024/04/03 02:12:13;;;;;;;5.80;2.80;;;10.30;99.90;;;;;;5039351;28;20070;-80
2024/04/03 02:14:38;;;;;;;7.45;2.50;;;10.30;99.90;;;;;;5039454;28;20033;-80
2024/04/03 02:17:04;;;;;;;6.05;2.30;;;10.30;99.90;;;;;;5014383;28;20397;-80
2024/04/03 02:19:30;;;;;;;8.35;2.50;;;10.30;99.90;;;;;;5013823;28;20048;-80
2024/04/03 02:21:55;;;;;;;5.82;2.40;;;10.20;99.90;;;;;;5013161;28;20584;-81
2024/04/03 02:24:21;;;;;;;9.85;2.80;;;10.20;99.90;;;;;;5013859;28;20124;-80
2024/04/03 02:26:47;;;;;;;7.35;2.70;;;10.20;99.90;;;;;;5013038;28;20017;-81
2024/04/03 02:29:15;;;;;;;5.95;2.80;;;10.10;99.90;;;;;;5012842;28;20051;-81
2024/04/03 02:31:41;;;;;;;6.53;2.65;;;10.10;99.90;;;;;;5013695;28;20473;-82
2024/04/03 02:34:08;;;;;;;7.35;2.25;;;10.10;99.90;;;;;;5013202;28;20040;-80
2024/04/03 02:36:33;;;;;;;7.95;3.00;;;10.10;99.90;;;;;;5038116;28;20079;-80
2024/04/03 02:38:59;;;;;;;5.72;1.98;;;10.10;99.90;;;;;;5028634;28;20065;-81
2024/04/03 02:41:25;;;;;;;5.22;1.73;;;10.10;99.90;;;;;;5020038;28;20021;-82
2024/04/03 02:43:51;;;;;;;8.05;2.50;;;10.10;99.90;;;;;;5016159;28;20116;-81
2024/04/03 02:46:17;;;;;;;11.15;2.45;;;10.10;99.90;;;;;;5031167;28;20022;-81
2024/04/03 02:48:42;;;;;;;6.70;2.55;;;10.10;99.90;;;;;;5020325;28;20437;-81
2024/04/03 02:51:11;;;;;;;8.07;2.40;;;10.10;99.90;;;;;;5030210;28;20037;-80
2024/04/03 02:53:37;;;;;;;5.50;1.67;;;10.10;99.90;;;;;;5026883;28;20521;-81
2024/04/03 02:56:07;;;;;;;9.57;2.70;;;10.10;99.90;;;;;;5041490;28;20063;-80
2024/04/03 02:58:34;;;;;;;6.47;2.20;;;10.10;99.90;;;;;;5031255;28;20056;-79
2024/04/03 03:01:10;;;;;;;7.47;2.35;;;10.10;99.90;;;;;;5030527;28;20488;-80
2024/04/03 03:03:36;;;;;;;8.88;2.28;;;10.10;99.90;;;;;;5023110;28;20037;-80
2024/04/03 03:06:04;;;;;;;6.15;1.85;;;10.00;99.90;;;;;;5044960;28;20427;-80
2024/04/03 03:08:32;;;;;;;6.55;2.17;;;10.00;99.90;;;;;;5036102;28;20029;-82
2024/04/03 03:10:59;;;;;;;7.18;1.98;;;10.00;99.90;;;;;;5029392;28;20112;-82
2024/04/03 03:13:26;;;;;;;4.03;1.60;;;10.00;99.90;;;;;;5021500;28;20029;-82
2024/04/03 03:16:00;;;;;;;7.70;2.00;;;10.00;99.90;;;;;;5029624;28;20057;-80
2024/04/03 03:18:30;;;;;;;10.27;1.80;;;10.00;99.90;;;;;;5020742;28;20029;-81
2024/04/03 03:20:56;;;;;;;6.25;1.80;;;10.00;99.90;;;;;;5040726;28;20511;-81
2024/04/03 03:23:22;;;;;;;7.45;1.55;;;10.00;99.90;;;;;;5027070;28;20025;-82
2024/04/03 03:25:49;;;;;;;5.03;1.48;;;10.00;99.90;;;;;;5010624;28;20030;-81
2024/04/03 03:28:15;;;;;;;5.35;2.50;;;10.00;99.90;;;;;;5029721;28;20481;-82
2024/04/03 03:30:45;;;;;;;6.57;2.50;;;10.00;99.90;;;;;;5034164;28;20070;-79
2024/04/03 03:33:10;;;;;;;6.93;2.58;;;10.00;99.90;;;;;;5049492;28;20036;-79
2024/04/03 03:35:36;;;;;;;4.32;1.45;;;10.00;99.90;;;;;;5034006;28;20032;-82
2024/04/03 03:38:02;;;;;;;4.15;1.60;;;9.90;99.90;;;;;;5042197;28;20064;-81
2024/04/03 03:40:28;;;;;;;6.07;1.52;;;10.00;99.90;;;;;;5037651;28;20043;-79
2024/04/03 03:42:54;;;;;;;7.68;1.67;;;10.00;99.90;;;;;;5018990;28;20106;-81
2024/04/03 03:45:20;;;;;;;5.60;1.50;;;10.00;99.90;;;;;;5041881;28;20470;-80
2024/04/03 03:47:46;;;;;;;6.50;1.73;;;10.00;99.90;;;;;;5035574;28;20124;-81
2024/04/03 03:52:56;;;;;;;8.90;1.38;;;10.00;99.90;;;;;;5033776;28;20035;-80
2024/04/03 03:55:25;;;;;;;6.43;1.33;;;10.00;99.90;;;;;;5037448;28;20519;-82
2024/04/03 03:57:51;;;;;;;9.27;1.75;;;10.00;99.90;;;;;;5033662;28;20567;-82
2024/04/03 04:00:17;;;;;;;4.32;1.48;;;10.00;99.90;;;;;;5041222;28;20037;-80
2024/04/03 04:02:42;;;;;;;9.98;2.08;;;10.00;99.90;;;;;;5032089;28;20067;-81
2024/04/03 04:05:08;;;;;;;7.28;1.90;;;10.00;99.90;;;;;;5034945;28;20029;-81
2024/04/03 04:07:33;;;;;;;7.07;1.58;;;10.00;99.90;;;;;;5034056;28;20579;-82
2024/04/03 04:09:59;;;;;;;4.75;1.35;;;10.00;99.90;;;;;;5033861;28;20029;-81
2024/04/03 04:12:24;;;;;;;5.22;1.58;;;10.00;99.90;;;;;;5030711;28;20366;-82
2024/04/03 04:14:52;;;;;;;8.30;1.38;;;10.00;99.90;;;;;;5027923;28;20028;-82
2024/04/03 04:17:19;;;;;;;6.55;1.42;;;10.00;99.90;;;;;;5022852;28;20109;-82
2024/04/03 04:19:45;;;;;;;5.18;1.27;;;10.00;99.90;;;;;;5029786;28;20099;-84
2024/04/03 04:22:11;;;;;;;11.55;1.88;;;10.00;99.90;;;;;;5038216;28;20108;-86
2024/04/03 04:24:38;;;;;;;7.45;0.98;;;10.00;99.90;;;;;;5025318;28;20120;-82
2024/04/03 04:27:07;;;;;;;7.25;1.13;;;10.00;99.90;;;;;;5031374;28;20067;-81
2024/04/03 04:29:39;;;;;;;5.70;0.80;;;10.00;99.90;;;;;;5033242;28;20013;-82
2024/04/03 04:32:05;;;;;;;6.38;0.95;;;10.00;99.90;;;;;;5023537;28;20485;-83
2024/04/03 04:34:31;;;;;;;8.75;0.80;;;10.00;99.90;;;;;;5034392;28;20121;-83
2024/04/03 04:36:57;;;;;;;6.93;0.90;;;10.00;99.90;;;;;;5021803;28;20020;-82
2024/04/03 04:39:23;;;;;;;3.15;1.27;;;10.00;99.90;;;;;;5033825;28;20489;-82
2024/04/03 04:41:52;;;;;;;6.72;1.00;;;10.00;99.90;;;;;;5033178;28;20026;-79
2024/04/03 04:44:21;;;;;;;4.55;1.10;;;10.00;99.90;;;;;;5032840;28;20029;-79
2024/04/03 04:46:51;;;;;;;10.40;1.40;;;10.00;99.90;;;;;;5036059;28;20061;-81
2024/04/03 04:49:18;;;;;;;6.82;1.10;;;10.00;99.90;;;;;;5032366;28;20513;-81
2024/04/03 04:51:44;;;;;;;3.78;1.10;;;10.00;99.90;;;;;;5033810;28;20064;-80
2024/04/03 04:54:15;;;;;;;5.25;0.82;;;10.00;99.90;;;;;;5028117;28;20022;-79
2024/04/03 04:56:41;;;;;;;6.88;1.33;;;10.00;99.90;;;;;;5015125;28;20026;-80
2024/04/03 04:59:08;;;;;;;7.40;1.35;;;10.00;99.90;;;;;;5030441;28;20113;-81
2024/04/03 05:01:34;;;;;;;6.35;1.38;;;10.00;99.90;;;;;;5028449;28;20022;-78
2024/04/03 05:04:01;;;;;;;7.40;2.00;;;9.90;99.90;;;;;;5032089;28;20498;-82
2024/04/03 05:06:27;;;;;;;5.85;1.15;;;9.90;99.90;;;;;;5032919;28;20100;-81
2024/04/03 05:08:53;;;;;;;7.65;1.85;;;9.90;99.90;;;;;;5026448;28;20112;-82
2024/04/03 05:11:18;;;;;;;6.13;1.60;;;9.90;99.90;;;;;;5033269;28;20121;-81
2024/04/03 05:13:45;;;;;;;11.10;1.85;;;9.90;99.90;;;;;;5030857;28;20040;-78
2024/04/03 05:16:12;;;;;;;6.40;1.60;;;9.90;99.90;;;;;;5030912;28;20856;-80
2024/04/03 05:18:39;;;;;;;8.75;1.58;;;9.90;99.90;;;;;;5023587;28;20044;-79
2024/04/03 05:21:05;;;;;;;4.97;1.88;;;9.90;99.90;;;;;;5031780;28;20099;-79
2024/04/03 05:23:31;;;;;;;9.43;2.25;;;9.90;99.90;;;;;;5032593;28;20469;-80
2024/04/03 05:26:01;;;;;;;7.05;1.80;;;9.90;99.90;;;;;;5030663;28;20056;-79
2024/04/03 05:28:29;;;;;;;4.30;1.23;;;9.90;99.90;;;;;;5019007;28;20314;-79
2024/04/03 05:31:00;;;;;;;6.38;1.83;;;9.90;99.90;;;;;;5031787;28;20406;-80
2024/04/03 05:33:26;;;;;;;9.25;2.33;;;9.90;99.90;;;;;;5023277;28;20037;-80
2024/04/03 05:35:59;;;;;;;5.63;1.75;;;9.90;99.90;;;;;;5032616;28;20500;-80
2024/04/03 05:38:25;;;;;;;7.18;1.80;;;9.90;99.90;;;;;;5008605;28;20060;-81
2024/04/03 05:40:52;;;;;;;15.77;2.15;;;9.90;99.90;;;;;;5017993;28;20478;-80
2024/04/03 05:43:17;;;;;;;8.45;2.55;;;9.90;99.90;;;;;;5022045;28;20485;-79
2024/04/03 05:45:44;;;;;;;3.80;1.35;;;10.00;99.90;;;;;;5032419;28;20061;-80
2024/04/03 05:48:09;;;;;;;9.23;2.60;;;9.90;99.90;;;;;;5044832;28;20025;-79
2024/04/03 05:50:35;;;;;;;10.52;2.60;;;10.00;99.90;;;;;;5038707;28;20033;-81
2024/04/03 05:53:01;;;;;;;12.10;3.03;;;10.00;99.90;;;;;;5029084;28;20104;-81
2024/04/03 05:55:27;;;;;;;10.40;2.47;;;10.00;99.90;;;;;;5040736;28;20148;-82
2024/04/03 05:57:53;;;;;;;7.18;2.28;;;10.00;99.90;;;;;;5030221;28;20091;-80
2024/04/03 06:00:18;;;;;;;8.38;2.72;;;10.10;99.90;;;;;;5028850;28;20049;-79
2024/04/03 06:02:44;;;;;;;11.07;2.70;;;10.10;99.90;;;;;;5026310;28;20029;-80
2024/04/03 06:05:09;;;;;;;8.70;2.65;;;10.10;99.90;;;;;;5036814;28;20856;-77
2024/04/03 06:07:35;;;;;;;7.68;2.58;;;10.10;99.90;;;;;;5029872;28;20022;-79
2024/04/03 06:10:03;;;;;;;6.57;2.00;;;10.10;99.90;;;;;;5026116;28;20029;-78
2024/04/03 06:12:29;;;;;;;6.53;3.30;;;10.10;99.90;;;;;;5022228;28;20047;-80
2024/04/03 06:14:58;;;;;;;7.70;2.92;;;10.10;99.90;;;;;;5033297;28;20419;-79
2024/04/03 06:17:24;;;;;;;6.93;3.03;;;10.20;99.90;;;;;;5010859;28;20500;-79
2024/04/03 06:19:50;;;;;;;6.18;1.85;;;10.20;99.90;;;;;;5026032;28;20051;-79
2024/04/03 06:22:15;;;;;;;6.90;1.52;;;10.20;99.90;;;;;;5035766;28;20067;-80
2024/04/03 06:24:42;;;;;;;8.48;2.65;;;10.30;99.90;;;;;;5040322;28;20034;-80
2024/04/03 06:27:08;;;;;;;7.25;2.47;;;10.20;99.90;;;;;;5019350;28;20033;-79
2024/04/03 06:29:36;;;;;;;11.18;2.92;;;10.30;99.90;;;;;;5024762;28;20056;-80
2024/04/03 06:32:02;;;;;;;9.02;3.55;;;10.40;99.90;;;;;;5014108;28;20390;-79
2024/04/03 06:34:28;;;;;;;9.38;2.30;;;10.40;99.90;;;;;;5031722;28;20036;-80
2024/04/03 06:36:54;;;;;;;7.70;2.40;;;10.40;99.90;;;;;;5029484;28;20100;-81
2024/04/03 06:39:20;;;;;;;6.80;1.75;;;10.40;99.90;;;;;;5014408;28;20034;-81
2024/04/03 06:41:46;;;;;;;7.75;2.05;;;10.50;99.90;;;;;;5041034;28;20025;-78
2024/04/03 06:44:11;;;;;;;9.43;2.67;;;10.50;99.90;;;;;;5031807;28;20391;-80
2024/04/03 06:46:37;;;;;;;4.57;1.80;;;10.50;99.90;;;;;;5026572;28;20080;-79
2024/04/03 06:49:10;;;;;;;8.73;2.20;;;10.50;99.90;;;;;;5031021;28;20033;-79
2024/04/03 06:51:36;;;;;;;9.48;1.75;;;10.60;99.90;;;;;;5027868;28;20511;-78
2024/04/03 06:54:03;;;;;;;6.75;1.52;;;10.60;99.90;;;;;;5029230;28;20113;-79
2024/04/03 06:56:30;;;;;;;7.20;1.70;;;10.60;99.90;;;;;;5027602;28;20017;-81
2024/04/03 06:58:56;;;;;;;8.32;1.70;;;10.60;99.90;;;;;;5013158;28;20042;-80
2024/04/03 07:01:22;;;;;;;6.85;1.65;;;10.70;99.90;;;;;;5030937;28;20424;-79
2024/04/03 07:03:48;;;;;;;3.25;1.13;;;10.70;99.90;;;;;;5026869;28;20026;-78
2024/04/03 07:06:16;;;;;;;3.60;1.15;;;10.60;99.90;;;;;;5023519;28;20034;-79
2024/04/03 07:08:42;;;;;;;7.45;1.30;;;10.70;99.90;;;;;;5028560;28;20029;-78
2024/04/03 07:11:08;;;;;;;5.78;1.58;;;10.70;99.90;;;;;;5033844;28;20155;-81
2024/04/03 07:13:33;;;;;;;7.43;1.35;;;10.70;99.90;;;;;;5021890;28;20029;-81
2024/04/03 07:15:59;;;;;;;7.32;1.38;;;10.70;99.90;;;;;;5018823;28;20072;-81
2024/04/03 07:18:25;;;;;;;7.47;1.92;;;10.70;99.90;;;;;;5019181;28;20064;-82
2024/04/03 07:20:56;;;;;;;4.95;1.50;;;10.70;99.90;;;;;;5058878;28;20033;-80
2024/04/03 07:23:25;;;;;;;7.53;2.00;;;10.70;99.90;;;;;;5045940;28;20030;-81
2024/04/03 07:25:55;;;;;;;7.88;1.77;;;10.70;99.90;;;;;;5034105;28;20030;-81
2024/04/03 07:28:21;;;;;;;4.32;1.35;;;10.70;99.90;;;;;;5040268;28;20432;-81
2024/04/03 07:30:47;;;;;;;5.97;1.70;;;10.70;99.90;;;;;;5035868;28;20029;-81
2024/04/03 07:33:12;;;;;;;6.53;1.63;;;10.60;99.90;;;;;;5031130;28;20049;-82
2024/04/03 07:35:38;;;;;;;6.45;1.38;;;10.70;99.90;;;;;;5017218;28;20029;-82
2024/04/03 07:38:04;;;;;;;7.20;2.22;;;10.70;99.90;;;;;;5031580;28;20028;-82
2024/04/03 07:40:30;;;;;;;12.95;1.60;;;10.70;99.90;;;;;;5035635;28;21105;-82
2024/04/03 07:42:56;;;;;;;6.28;1.70;;;10.70;99.90;;;;;;5025191;28;20385;-82
2024/04/03 07:45:22;;;;;;;10.35;1.52;;;10.60;99.90;;;;;;5033469;28;20525;-81
2024/04/03 07:47:48;;;;;;;8.10;1.58;;;10.70;99.90;;;;;;5040565;28;20483;-81
2024/04/03 07:50:15;;;;;;;8.82;1.92;;;10.70;99.90;;;;;;5032683;28;20040;-81
2024/04/03 07:52:40;;;;;;;5.82;1.40;;;10.70;99.90;;;;;;5027708;28;20048;-80
2024/04/03 07:55:07;;;;;;;6.68;2.22;;;10.70;99.90;;;;;;5034349;28;20029;-80
2024/04/03 07:57:34;;;;;;;7.85;2.03;;;10.80;99.90;;;;;;5034946;28;20132;-84
2024/04/03 08:00:04;;;;;;;7.30;2.00;;;10.80;99.90;;;;;;5036326;28;20044;-88
2024/04/03 08:02:35;;;;;;;8.88;2.08;;;11.00;99.90;;;;;;5033564;28;20097;-87
2024/04/03 08:05:01;;;;;;;8.52;1.67;;;11.10;99.90;;;;;;5032930;28;20535;-86
2024/04/03 08:07:28;;;;;;;10.15;2.20;;;11.20;99.90;;;;;;5018702;28;20034;-86
2024/04/03 08:09:54;;;;;;;8.18;2.00;;;11.30;99.90;;;;;;5008753;28;20037;-83
2024/04/03 08:12:20;;;;;;;9.77;2.50;;;11.30;99.90;;;;;;5033212;28;20037;-83
2024/04/03 08:14:45;;;;;;;7.57;1.85;;;11.30;99.90;;;;;;5031383;28;20025;-83
2024/04/03 08:17:11;;;;;;;9.75;2.28;;;11.30;99.90;;;;;;5032626;28;20033;-85
2024/04/03 08:19:36;;;;;;;7.45;1.55;;;11.30;99.90;;;;;;5019416;28;20038;-86
2024/04/03 08:22:02;;;;;;;4.68;1.50;;;11.30;99.90;;;;;;5032253;28;20078;-85
2024/04/03 08:24:28;;;;;;;6.25;1.48;;;11.30;99.90;;;;;;5036719;28;20591;-84
2024/04/03 08:26:55;;;;;;;5.50;1.40;;;11.30;99.90;;;;;;5054177;28;20081;-85
2024/04/03 08:29:22;;;;;;;8.00;1.42;;;11.30;99.90;;;;;;5038448;28;20025;-84
2024/04/03 08:31:48;;;;;;;5.57;1.35;;;11.20;99.90;;;;;;5012399;28;20096;-86
2024/04/03 08:34:14;;;;;;;4.07;1.20;;;11.30;99.90;;;;;;5028483;28;20030;-84
2024/04/03 08:36:40;;;;;;;6.30;1.20;;;11.20;99.90;;;;;;5033080;28;20091;-87
2024/04/03 08:39:06;;;;;;;7.70;1.60;;;11.20;99.90;;;;;;5042000;28;20048;-85
2024/04/03 08:41:34;;;;;;;5.88;1.10;;;11.20;99.90;;;;;;5034171;28;20496;-87
2024/04/03 08:44:00;;;;;;;5.18;1.20;;;11.20;99.90;;;;;;5035652;28;20086;-85
2024/04/03 08:46:29;;;;;;;5.32;0.90;;;11.20;99.90;;;;;;5036532;28;20498;-86
2024/04/03 08:48:56;;;;;;;3.13;1.10;;;11.20;99.90;;;;;;5035441;28;20036;-87
2024/04/03 08:51:28;;;;;;;5.60;1.00;;;11.20;99.90;;;;;;5028721;28;20159;-87
2024/04/03 08:54:03;;;;;;;4.40;1.05;;;11.20;99.90;;;;;;5029036;28;20022;-89
2024/04/03 08:56:29;;;;;;;5.00;0.85;;;11.30;99.90;;;;;;5029870;28;20083;-88
2024/04/03 08:58:54;;;;;;;4.15;0.90;;;11.40;99.90;;;;;;5035689;28;20045;-86
2024/04/03 09:01:21;;;;;;;6.40;0.98;;;11.40;99.90;;;;;;5032415;28;20053;-88
2024/04/03 09:03:46;;;;;;;4.55;0.80;;;11.40;99.90;;;;;;5036001;28;20044;-86
2024/04/03 09:06:12;;;;;;;4.25;0.90;;;11.50;99.90;;;;;;5028828;28;20033;-87
2024/04/03 09:08:44;;;;;;;2.83;0.63;;;11.50;99.90;;;;;;5025476;28;20084;-88
2024/04/03 09:11:11;;;;;;;2.88;0.70;;;11.60;99.90;;;;;;5028693;28;20116;-87
2024/04/03 09:13:37;;;;;;;5.70;0.90;;;11.60;99.90;;;;;;5030410;28;20041;-87
2024/04/03 09:16:03;;;;;;;3.42;0.63;;;11.60;99.90;;;;;;5024413;28;20389;-86
2024/04/03 09:18:30;;;;;;;2.85;0.95;;;11.60;99.90;;;;;;5031038;28;20033;-87
2024/04/03 09:20:55;;;;;;;6.47;0.75;;;11.60;99.90;;;;;;5023901;28;20065;-86
2024/04/03 09:23:21;;;;;;;3.97;0.70;;;11.60;99.90;;;;;;5033568;28;20029;-86
2024/04/03 09:25:48;;;;;;;7.35;1.25;;;11.60;99.90;;;;;;5040192;28;20044;-85
2024/04/03 09:28:14;;;;;;;3.53;0.88;;;11.60;99.90;;;;;;5036508;28;20025;-86
2024/04/03 09:30:49;;;;;;;4.90;0.70;;;11.70;99.90;;;;;;5034617;28;20374;-87
2024/04/03 09:33:16;;;;;;;5.53;0.70;;;11.70;99.90;;;;;;5041550;28;20111;-87
2024/04/03 09:35:43;;;;;;;4.43;1.00;;;11.70;99.90;;;;;;5035293;28;20075;-86
2024/04/03 09:38:13;;;;;;;3.25;0.70;;;11.80;99.90;;;;;;5034347;28;20028;-87
2024/04/03 09:40:40;;;;;;;2.85;0.60;;;11.90;99.90;;;;;;5034609;28;20409;-86
2024/04/03 09:43:10;;;;;;;4.15;0.63;;;11.90;99.90;;;;;;5033560;28;20029;-87
2024/04/03 09:45:36;;;;;;;1.23;0.50;;;12.00;99.90;;;;;;5043352;28;20083;-89
2024/04/03 09:48:09;;;;;;;4.60;0.70;;;12.00;99.90;;;;;;5034516;28;20025;-87
2024/04/03 09:50:43;;;;;;;2.22;0.70;;;12.10;99.90;;;;;;5028648;28;20099;-86
2024/04/03 09:53:23;;;;;;;3.13;0.88;;;12.10;99.90;;;;;;5033550;28;20105;-87
2024/04/03 09:55:52;;;;;;;2.75;0.80;;;12.20;99.90;;;;;;5033428;28;20029;-87
2024/04/03 09:58:26;;;;;;;1.75;0.60;;;12.40;99.90;;;;;;5032436;28;20046;-87
2024/04/03 10:00:56;;;;;;;4.00;0.60;;;12.50;99.90;;;;;;5013515;28;20049;-87
2024/04/03 10:03:23;;;;;;;3.17;0.70;;;12.60;99.90;;;;;;5015334;28;20072;-88
2024/04/03 10:06:16;;;;;;;3.03;1.00;;;12.70;99.90;;;;;;5043350;28;20115;-88
2024/04/03 10:08:44;;;;;;;2.28;0.60;;;12.90;99.90;;;;;;5030334;28;20091;-87
2024/04/03 10:11:15;;;;;;;3.65;0.50;;;13.00;99.90;;;;;;5031045;28;20481;-86
2024/04/03 10:13:44;;;;;;;2.35;0.68;;;13.10;99.90;;;;;;5002538;28;20124;-86
2024/04/03 10:16:12;;;;;;;2.92;0.85;;;13.20;99.90;;;;;;5024680;28;20532;-86
2024/04/03 10:18:43;;;;;;;2.53;0.60;;;13.40;99.90;;;;;;5024326;28;20103;-87
2024/04/03 10:21:10;;;;;;;3.20;0.73;;;13.50;99.90;;;;;;5030187;28;20021;-87
2024/04/03 10:23:43;;;;;;;1.05;0.40;;;13.60;99.90;;;;;;5031273;28;20108;-88
2024/04/03 10:26:09;;;;;;;1.08;0.57;;;13.70;99.90;;;;;;5038961;28;20029;-86
2024/04/03 10:28:36;;;;;;;2.80;0.60;;;13.70;99.90;;;;;;5028105;28;20038;-88
2024/04/03 10:31:02;;;;;;;1.45;0.50;;;13.70;99.90;;;;;;5028069;28;20497;-87
2024/04/03 10:33:28;;;;;;;3.00;0.60;;;13.70;99.90;;;;;;5017058;28;20041;-87
2024/04/03 10:35:55;;;;;;;4.40;0.75;;;13.70;99.90;;;;;;5012732;28;20497;-86
2024/04/03 10:38:21;;;;;;;1.25;0.55;;;13.70;99.90;;;;;;5036768;28;20437;-86
2024/04/03 10:40:49;;;;;;;2.15;0.50;;;13.70;99.90;;;;;;5031765;28;20068;-86
2024/04/03 10:43:15;;;;;;;1.58;0.55;;;13.80;99.90;;;;;;5037859;28;20092;-87
2024/04/03 10:45:50;;;;;;;1.35;0.40;;;13.70;99.90;;;;;;5041059;28;20037;-86
2024/04/03 10:48:19;;;;;;;3.05;0.60;;;13.70;99.90;;;;;;5028589;28;20108;-88
2024/04/03 10:50:46;;;;;;;2.63;0.60;;;13.70;99.90;;;;;;5035969;28;20098;-87
2024/04/03 10:53:13;;;;;;;1.23;0.50;;;13.60;99.90;;;;;;5026453;28;20040;-86
2024/04/03 10:55:39;;;;;;;3.50;0.60;;;13.60;99.90;;;;;;5046362;28;20451;-87
2024/04/03 10:58:06;;;;;;;1.75;0.40;;;13.60;99.90;;;;;;5034534;28;20128;-88
2024/04/03 11:00:40;;;;;;;1.73;0.50;;;13.60;99.90;;;;;;5029860;28;20048;-88
2024/04/03 11:03:09;;;;;;;2.00;0.60;;;13.60;99.90;;;;;;5031424;28;20025;-89
2024/04/03 11:05:36;;;;;;;1.42;0.80;;;13.70;99.90;;;;;;5033428;28;20033;-88
2024/04/03 11:08:03;;;;;;;1.25;0.50;;;13.90;99.90;;;;;;5034391;28;20024;-89
2024/04/03 11:10:29;;;;;;;1.85;0.47;;;14.10;99.90;;;;;;5035882;28;20036;-89
2024/04/03 11:13:10;;;;;;;2.50;0.60;;;14.20;99.90;;;;;;5042409;28;20034;-88
2024/04/03 11:15:37;;;;;;;1.00;0.50;;;14.20;99.90;;;;;;5034353;28;20475;-88
2024/04/03 11:18:04;;;;;;;1.35;0.50;;;14.10;99.90;;;;;;5046540;28;20056;-89
2024/04/03 11:20:31;;;;;;;3.58;0.50;;;14.00;99.90;;;;;;5035458;28;20037;-86
2024/04/03 11:22:58;;;;;;;1.33;0.40;;;13.90;99.90;;;;;;5034695;28;20531;-87
2024/04/03 11:25:28;;;;;;;3.10;0.40;;;13.90;99.90;;;;;;5033664;28;20458;-90
2024/04/03 11:27:56;;;;;;;2.40;0.50;;;13.80;99.90;;;;;;5036656;28;20087;-89
2024/04/03 11:30:22;;;;;;;0.90;0.50;;;13.90;99.90;;;;;;5036769;28;20109;-89
2024/04/03 11:32:49;;;;;;;2.20;0.45;;;14.00;99.90;;;;;;5036077;28;20029;-88
2024/04/03 11:35:15;;;;;;;1.70;0.50;;;13.90;99.90;;;;;;5014180;28;20505;-88
2024/04/03 11:37:41;;;;;;;1.08;0.40;;;13.90;99.90;;;;;;5036092;28;20033;-88
2024/04/03 11:40:07;;;;;;;1.45;0.50;;;13.80;99.90;;;;;;5035417;28;20040;-88
2024/04/03 11:42:34;;;;;;;1.50;0.60;;;13.70;99.90;;;;;;5036414;28;20481;-88
2024/04/03 11:45:00;;;;;;;2.28;0.60;;;13.70;99.90;;;;;;5034182;28;20025;-87
2024/04/03 11:47:25;;;;;;;1.42;0.60;;;13.80;99.90;;;;;;5036775;28;20104;-89
2024/04/03 11:49:51;;;;;;;3.28;0.80;;;13.90;99.90;;;;;;5042582;28;20099;-87
2024/04/03 11:52:17;;;;;;;3.30;0.90;;;13.90;99.90;;;;;;5036063;28;20026;-87
2024/04/03 11:54:43;;;;;;;2.33;1.00;;;13.80;99.90;;;;;;5035433;28;20029;-87
2024/04/03 11:57:09;;;;;;;3.28;0.70;;;13.80;99.90;;;;;;5012904;28;20103;-88
2024/04/03 11:59:35;;;;;;;3.17;1.30;;;13.80;99.90;;;;;;5003062;28;20048;-87
2024/04/03 12:02:02;;;;;;;2.55;0.70;;;13.80;99.90;;;;;;5015459;28;20034;-88
2024/04/03 12:04:28;;;;;;;1.33;0.60;;;13.60;99.90;;;;;;5007333;28;20026;-88
2024/04/03 12:06:53;;;;;;;1.65;0.60;;;13.60;99.90;;;;;;5012388;28;20029;-88
2024/04/03 12:09:19;;;;;;;0.95;0.40;;;13.50;99.90;;;;;;5013324;28;20033;-88
2024/04/03 12:11:44;;;;;;;2.03;0.38;;;13.60;99.90;;;;;;5011482;28;20071;-89
2024/04/03 12:14:10;;;;;;;1.10;0.40;;;13.60;99.90;;;;;;5015049;28;20076;-88
2024/04/03 12:16:36;;;;;;;0.43;0.30;;;13.60;99.90;;;;;;5014791;28;20109;-87
2024/04/03 12:21:41;;;;;;;0.77;0.30;;;13.80;99.90;;;;;;5018824;28;20378;-89
2024/04/03 12:24:08;;;;;;;1.52;0.30;;;14.10;99.90;;;;;;5006350;28;20030;-86
2024/04/03 12:26:34;;;;;;;0.82;0.30;;;14.30;99.90;;;;;;5010802;28;20540;-86
2024/04/03 12:28:59;;;;;;;2.03;0.30;;;14.40;99.90;;;;;;5010631;28;20105;-86
2024/04/03 12:31:25;;;;;;;0.45;0.28;;;14.40;99.90;;;;;;5019632;28;20025;-85
2024/04/03 12:33:54;;;;;;;1.20;0.30;;;14.50;99.90;;;;;;5022302;28;20025;-88
2024/04/03 12:36:20;;;;;;;0.80;0.30;;;14.50;99.90;;;;;;5015089;28;20022;-87
2024/04/03 12:38:46;;;;;;;0.40;0.20;;;14.40;99.90;;;;;;5014938;28;20044;-87
2024/04/03 12:41:12;;;;;;;0.70;0.30;;;14.30;99.90;;;;;;4997592;28;20030;-87
2024/04/03 12:43:38;;;;;;;0.60;0.35;;;14.20;99.90;;;;;;5012503;28;20068;-88
2024/04/03 12:46:04;;;;;;;0.75;0.40;;;14.10;99.90;;;;;;5015942;28;20077;-86
2024/04/03 12:48:29;;;;;;;0.77;0.38;;;14.10;99.90;;;;;;5011588;28;20052;-88
2024/04/03 12:50:56;;;;;;;0.75;0.30;;;14.00;99.90;;;;;;5008837;28;20022;-88